CERCS-SANT JORDI (Berguèdà)





Hora UTC 05:30
Temperatura 15.5 ºC
Humitat 78.8 %
Pressió 1013.3 hPa
Pluja 0.0 mm
Velocitat vent 2.5 km/h
Direcció vent NNE
Radiació solar 71.9 W/m²

Dades diàries 2024-05-30



Hora UTC (hivern +1h; estiu +2h)
Temperatura (ºC) Humitat (%) Pressió (hPa) Velocitat vent (km/h) Precipitació (mm) Radiació solar (W/m²)
Hora UTC Aire Humitat Pressió Vel. Dir. Vel. Max Dir. Intent. màx 5 min. Rad. Sol.
00:05 18.8 73.7 1015.5 0.2 SSE 0.2 SSE 0.0 0.2
00:10 18.7 72.7 1015.4 0.2 E 3.4 ESE 0.0 0.2
00:15 18.8 71.4 1015.4 0.4 SSW 3.4 SSW 0.0 0.1
00:20 18.7 72.5 1015.4 0.0 NNE 0.0 SSW 0.0 0.1
00:25 18.6 72.7 1015.4 0.0 NNE 0.0 SSW 0.0 0.1
00:30 18.5 72.1 1015.4 0.0 NNE 0.0 SSW 0.0 0.1
00:35 18.5 70.6 1015.4 0.0 NNE 0.0 W 0.0 0.1
00:40 18.5 70.7 1015.2 0.1 S 3.4 S 0.0 0.1
00:45 18.1 73.3 1015.2 2.1 SSW 6.1 S 0.0 0.2
00:50 17.8 74.0 1015.1 0.2 SSW 3.4 SW 0.0 0.1
00:55 17.4 74.4 1015.1 1.4 SSW 6.1 SSW 0.0 0.1
01:00 17.2 75.3 1015.0 0.8 SW 6.1 SW 0.0 0.1
01:05 16.9 76.1 1015.0 2.4 SW 6.1 SSW 0.0 0.1
01:10 16.7 76.3 1015.0 3.9 WSW 6.1 SSW 0.0 0.1
01:15 16.6 77.0 1014.9 3.3 WSW 8.8 SW 0.0 0.1
01:20 16.6 77.0 1014.9 2.1 SW 6.1 SSW 0.0 0.2
01:25 16.4 77.1 1014.8 2.6 SSW 6.1 SW 0.0 0.1
01:30 16.3 77.6 1014.7 1.8 SW 6.1 WSW 0.0 0.2
01:35 16.2 78.1 1014.7 1.9 SSW 6.1 SSW 0.0 0.1
01:40 16.2 78.7 1014.7 0.2 SW 3.4 SSW 0.0 0.1
01:45 16.2 78.8 1014.6 1.3 SSW 6.1 S 0.0 0.1
01:50 16.1 79.4 1014.5 3.3 SW 8.8 WSW 0.0 0.1
01:55 16.0 79.0 1014.4 3.9 WSW 6.1 WSW 0.0 0.1
02:00 16.1 78.3 1014.4 2.9 W 6.1 W 0.0 0.2
02:05 16.3 77.1 1014.4 1.9 SW 6.1 SW 0.0 0.1
02:10 16.3 76.9 1014.4 1.9 SW 6.1 WSW 0.0 0.1
02:15 16.3 76.4 1014.4 1.7 WSW 8.8 SW 0.0 0.1
02:20 16.3 76.4 1014.3 2.0 SW 6.1 SW 0.0 0.1
02:25 16.1 76.4 1014.3 2.3 WSW 6.1 WSW 0.0 0.1
02:30 16.0 76.1 1014.2 0.1 WNW 3.4 WNW 0.0 0.1
02:35 16.0 76.7 1014.2 0.0 NNE 0.0 SSW 0.0 0.1
02:40 15.8 77.7 1014.1 0.5 WSW 3.4 SW 0.0 0.1
02:45 15.8 77.8 1014.0 0.0 WSW 3.4 WSW 0.0 0.1
02:50 15.7 78.4 1014.0 0.0 S 3.4 S 0.0 0.1
02:55 15.6 78.9 1014.0 0.0 NNE 0.0 SSW 0.0 0.1
03:00 15.5 79.9 1014.0 0.0 NNE 0.0 N 0.0 0.1
03:05 15.5 79.9 1013.9 0.5 ENE 3.4 ENE 0.0 0.1
03:10 15.6 79.0 1013.9 0.0 NNE 0.0 NE 0.0 0.1
03:15 15.6 78.7 1013.8 0.0 NNE 0.0 SSW 0.0 0.1
03:20 15.5 78.6 1013.8 0.0 NNE 0.0 SSW 0.0 0.1
03:25 15.5 78.7 1013.7 0.0 NNE 0.0 SW 0.0 0.1
03:30 15.5 78.7 1013.6 0.2 WSW 3.4 W 0.0 0.1
03:35 15.5 78.8 1013.6 0.1 WSW 3.4 W 0.0 0.1
03:40 15.5 79.0 1013.5 1.0 NE 6.1 NE 0.0 0.2
03:45 15.6 78.8 1013.5 0.0 NNE 0.0 NE 0.0 0.1
03:50 15.5 79.2 1013.4 0.0 NNE 0.0 ENE 0.0 0.1
03:55 15.3 79.8 1013.4 0.0 NNE 0.0 ENE 0.0 0.2
04:00 15.4 80.0 1013.5 0.0 NNE 0.0 NE 0.0 0.4
04:05 15.3 80.6 1013.5 1.4 ENE 6.1 ENE 0.0 1.1
04:10 15.3 80.9 1013.5 0.0 NNE 0.0 ENE 0.0 2.7
04:15 15.2 80.6 1013.5 0.0 NNE 0.0 NNW 0.0 3.4
04:20 15.1 81.2 1013.5 0.0 NNE 0.0 NNW 0.0 3.5
04:25 15.0 81.7 1013.5 0.1 E 3.4 ENE 0.0 5.7
04:30 14.9 81.9 1013.5 0.1 ENE 3.4 ENE 0.0 7.3
04:35 14.9 82.5 1013.5 0.0 NNE 0.0 NE 0.0 9.9
04:40 14.8 82.5 1013.5 0.0 NNE 0.0 ESE 0.0 12.0
04:45 14.7 82.8 1013.4 0.0 NNE 0.0 ENE 0.0 13.0
04:50 14.7 82.9 1013.4 0.0 ESE 3.4 ESE 0.0 14.3
04:55 14.7 83.1 1013.4 0.0 NNE 0.0 ESE 0.0 14.1
05:00 14.6 83.3 1013.3 0.0 NNE 0.0 NNW 0.0 13.9
05:05 14.6 83.1 1013.3 0.0 NNE 0.0 NNW 0.0 15.7
05:10 14.6 82.7 1013.3 0.0 NNE 0.0 S 0.0 21.4
05:15 14.6 82.6 1013.3 0.0 NNE 0.0 S 0.0 29.7
05:20 14.8 82.1 1013.3 1.6 NNE 6.1 NNE 0.0 48.0
05:25 15.3 80.0 1013.3 3.3 NNE 8.8 NNE 0.0 55.2
05:30 15.5 78.8 1013.3 2.5 NNE 6.1 N 0.0 71.9
Màxima 18.8 83.3 1015.5 3.9 WSW 8.8 NNE 0.0 71.9
Mínima 14.6 70.6 1013.3
Total 0.0